Walden, CO (80430)

7:39 PM MDT on August 29, 2014 (GMT -0600)
RAWS DRY LAKE CO US | Change Station
CLOSE
Current Station
Personal Weather Station
Location: Steamboat Springs, CO
Elevation: 8416 ft
Nearby Weather Stations

Elev 8416 ft 40.53 °N, 106.78 °W | Updated 43 minutes ago

Rain
Rain
62 °F
Feels Like 62 °F
N
3
Wind Variable Wind from SSW
Gusts 6.0 mph

Today
High -- | Low -- °F
--% Chance of Precip.
Yesterday
High -- | Low -- °F
Precip. -- in
6:30 AM 7:42 PM
Waxing Crescent, 18% visible
Pressure 30.20 in
Visibility 10.0 miles
Clouds Scattered Clouds 7500 ft
Scattered Clouds 8500 ft
Dew Point 47 °F
Humidity 58%
Rainfall 0.03 in
Snow Depth 0 in , 0 in , 0 in
UV 0 out of 12
Pollen 10.00 out of 12
Air Quality Not available.
Flu Activity Not available.
METAR KSBS 300134Z AUTO 00000KT 10SM SCT075 SCT085 18/10 A3020 RMK AO1 T01800095

More Conditions Fewer Conditions

Pressure 30.20 in
Visibility 10.0 miles
Clouds Scattered Clouds 7500 ft
Scattered Clouds 8500 ft
Dew Point 47 °F
Humidity 58%
Rainfall 0.03 in
Snow Depth 0 in , 0 in , 0 in
UV 0 out of 12
Pollen 10.00 out of 12
Air Quality Not available.
Flu Activity Not available.
METAR KSBS 300134Z AUTO 00000KT 10SM SCT075 SCT085 18/10 A3020 RMK AO1 T01800095

More Conditions Fewer Conditions

10-Day Weather Forecast

Almanac

Astronomy

Aug. 29, 2014 Rise Set
Actual Time 6:30 AM MDT 7:42 PM MDT
Civil Twilight 6:02 AM MDT 8:10 PM MDT
Nautical Twilight 5:28 AM MDT 8:44 PM MDT
Astronomical Twilight 4:53 AM MDT 9:19 PM MDT
Moon 10:23 AM MDT (8/29) 9:40 PM MDT (8/29)
Length of Visible Light 14h 08m
Length of Day
13h 12m
Tomorrow will be 2m 33s shorter.
Waxing Crescent, 18% of the Moon is Illuminated
Today
Waxing Crescent
Sep 2
First Quarter
Sep 8
Full
Sep 15
Last Quarter
Sep 24
New

Today's Extremes

State Highs State Lows

Community

WunderPhotos

Upload Photos

1,748,403 photos uploaded!

Nearby

Snow Depth

Station Depth Elevation
Columbine 0 in 9160 ft
Arapaho Ridge 0 in 10960 ft
Rabbit Ears 0 in 9400 ft
Willow Creek Pass 0 in 9540 ft
Rawah 6 in 9020 ft

Earthquake Activity

City Distance Mag. Time & Date
No recent earthquake activity has been reported nearby.
Minimum magnitude displayed is 2.5.

Coastal Water Temperatures

Place Temperature
No Stations Reporting

Nearby Weather Stations